createdAt,value
2022-09-03T00:04:28.953Z,21.39
2022-09-03T00:09:35.490Z,21.45
2022-09-03T00:14:41.026Z,21.22
2022-09-03T00:19:48.762Z,21.29
2022-09-03T00:24:51.666Z,21.31
2022-09-03T00:29:56.569Z,21.24
2022-09-03T00:35:05.371Z,21.10
2022-09-03T00:40:15.198Z,21.11
2022-09-03T00:45:28.954Z,21.35
2022-09-03T00:50:42.585Z,21.19
2022-09-03T00:55:51.241Z,21.07
2022-09-03T01:00:53.969Z,21.03
2022-09-03T01:06:07.159Z,21.16
2022-09-03T01:11:20.001Z,20.93
2022-09-03T01:16:27.990Z,20.87
2022-09-03T01:21:47.027Z,20.81
2022-09-03T01:27:11.035Z,20.80
2022-09-03T01:32:18.403Z,20.83
2022-09-03T01:37:28.681Z,20.84
2022-09-03T01:42:43.891Z,20.74
2022-09-03T01:47:57.730Z,20.67
2022-09-03T01:53:04.977Z,20.71
2022-09-03T01:58:12.347Z,20.62
2022-09-03T02:03:17.470Z,20.49
2022-09-03T02:08:20.879Z,20.68
2022-09-03T02:13:25.742Z,20.56
2022-09-03T02:18:31.890Z,20.35
2022-09-03T02:23:34.815Z,20.45
2022-09-03T02:28:37.744Z,20.54
2022-09-03T02:33:45.546Z,20.38
2022-09-03T02:38:48.545Z,20.35
2022-09-03T02:43:55.076Z,20.30
2022-09-03T02:48:59.191Z,20.23
2022-09-03T02:54:01.991Z,20.33
2022-09-03T02:59:05.406Z,20.28
2022-09-03T03:04:09.593Z,20.26
2022-09-03T03:09:12.305Z,20.24
2022-09-03T03:14:15.345Z,20.11
2022-09-03T03:19:19.527Z,19.97
2022-09-03T03:24:22.247Z,19.94
2022-09-03T03:29:26.109Z,19.93
2022-09-03T03:34:30.180Z,20.05
2022-09-03T03:39:32.903Z,19.96
2022-09-03T03:44:35.644Z,19.94
2022-09-03T03:49:40.047Z,19.81
2022-09-03T03:54:42.737Z,19.94
2022-09-03T03:59:45.471Z,19.76
2022-09-03T04:04:49.509Z,19.83
2022-09-03T04:09:52.277Z,19.79
2022-09-03T04:14:54.983Z,19.77
2022-09-03T04:19:59.089Z,19.82
2022-09-03T04:25:02.187Z,19.71
2022-09-03T04:30:05.661Z,19.82
2022-09-03T04:35:10.330Z,19.65
2022-09-03T04:40:13.041Z,19.67
2022-09-03T04:45:19.529Z,19.55
2022-09-03T04:50:23.665Z,19.62
2022-09-03T04:55:35.944Z,19.56
2022-09-03T05:00:38.948Z,19.59
2022-09-03T05:05:43.018Z,19.61
2022-09-03T05:10:45.701Z,19.53
2022-09-03T05:15:48.358Z,19.49
2022-09-03T05:20:59.642Z,19.51
2022-09-03T05:26:03.678Z,19.52
2022-09-03T05:31:08.212Z,19.57
2022-09-03T05:36:13.996Z,19.55
2022-09-03T05:41:18.995Z,19.72
2022-09-03T05:46:21.991Z,19.61
2022-09-03T05:51:26.179Z,19.70
2022-09-03T05:56:30.738Z,19.66
2022-09-03T06:01:34.900Z,19.77
2022-09-03T06:06:40.318Z,19.67
2022-09-03T06:11:43.680Z,19.74
2022-09-03T06:16:49.406Z,19.90
2022-09-03T06:21:53.590Z,19.87
2022-09-03T06:26:56.479Z,20.07
2022-09-03T06:31:59.435Z,20.40
2022-09-03T06:37:03.491Z,20.53
2022-09-03T06:42:06.853Z,20.62
2022-09-03T06:47:12.409Z,20.68
2022-09-03T06:52:16.502Z,20.70
2022-09-03T06:57:19.281Z,20.72
2022-09-03T07:02:22.911Z,20.82
2022-09-03T07:07:27.012Z,20.72
2022-09-03T07:12:29.812Z,20.56
2022-09-03T07:17:32.632Z,20.54
2022-09-03T07:22:37.085Z,20.58
2022-09-03T07:27:39.846Z,20.58
2022-09-03T07:32:42.518Z,20.48
2022-09-03T07:37:46.658Z,20.55
2022-09-03T07:42:54.512Z,20.62
2022-09-03T07:47:57.948Z,20.85
2022-09-03T07:53:02.043Z,20.83
2022-09-03T07:58:04.803Z,20.69
2022-09-03T08:03:08.744Z,20.85
2022-09-03T08:08:15.525Z,20.99
2022-09-03T08:13:19.309Z,21.10
2022-09-03T08:18:22.824Z,20.90
2022-09-03T08:23:27.258Z,21.02
2022-09-03T08:28:30.199Z,21.02
2022-09-03T08:33:38.606Z,21.12
2022-09-03T08:38:46.129Z,21.10
2022-09-03T08:44:08.790Z,21.18
2022-09-03T08:49:14.341Z,21.34
2022-09-03T08:54:18.722Z,21.31
2022-09-03T08:59:22.358Z,21.27
2022-09-03T09:04:45.091Z,21.19
2022-09-03T09:09:54.151Z,21.17
2022-09-03T09:15:07.489Z,21.05
2022-09-03T09:20:17.099Z,21.16
2022-09-03T09:25:23.214Z,21.01
2022-09-03T09:30:25.969Z,21.18
2022-09-03T09:35:29.104Z,21.11
2022-09-03T09:40:34.884Z,21.16
2022-09-03T09:45:40.727Z,21.28
2022-09-03T09:50:43.467Z,21.32
2022-09-03T09:55:55.134Z,21.31
2022-09-03T10:01:22.276Z,21.33
2022-09-03T10:06:43.483Z,21.38
2022-09-03T10:11:51.211Z,21.41
2022-09-03T10:16:58.395Z,21.38
2022-09-03T10:22:06.031Z,21.54
2022-09-03T10:27:12.540Z,21.27
2022-09-03T10:32:23.822Z,21.41
2022-09-03T10:37:31.004Z,21.36
2022-09-03T10:42:46.534Z,21.45
2022-09-03T10:48:12.037Z,21.35
2022-09-03T10:53:21.993Z,21.42
2022-09-03T10:58:39.069Z,21.39
2022-09-03T11:03:46.756Z,21.63
2022-09-03T11:08:54.845Z,21.46
2022-09-03T11:14:01.565Z,21.57
2022-09-03T11:19:06.367Z,21.57
2022-09-03T11:24:14.009Z,21.38
2022-09-03T11:29:21.970Z,21.52
2022-09-03T11:34:32.461Z,21.67
2022-09-03T11:39:37.560Z,21.56
2022-09-03T11:44:51.248Z,21.43
2022-09-03T11:50:06.701Z,21.52
2022-09-03T11:55:09.819Z,21.46
2022-09-03T12:00:18.530Z,21.60
2022-09-03T12:05:31.098Z,21.66
2022-09-03T12:10:39.743Z,21.68
2022-09-03T12:15:57.086Z,21.74
2022-09-03T12:21:05.109Z,21.88
2022-09-03T12:26:14.737Z,21.82
2022-09-03T12:31:23.605Z,21.78
2022-09-03T12:36:27.054Z,21.79
2022-09-03T12:41:32.476Z,21.82
2022-09-03T12:46:36.686Z,21.78
2022-09-03T12:51:51.055Z,21.93
2022-09-03T12:56:57.707Z,22.07
2022-09-03T13:02:04.612Z,21.96
2022-09-03T13:07:09.622Z,22.07
2022-09-03T13:12:22.776Z,22.11
2022-09-03T13:17:39.634Z,22.16
2022-09-03T13:22:51.562Z,22.20
2022-09-03T13:28:02.473Z,22.18
2022-09-03T13:33:10.519Z,22.34
2022-09-03T13:38:22.945Z,22.35
2022-09-03T13:43:31.260Z,22.28
2022-09-03T13:48:57.180Z,22.37
2022-09-03T13:54:06.095Z,22.39
2022-09-03T13:59:14.653Z,22.48
2022-09-03T14:04:23.992Z,22.52
2022-09-03T14:09:35.027Z,22.52
2022-09-03T14:14:42.772Z,22.57
2022-09-03T14:19:50.132Z,22.55
2022-09-03T14:24:56.789Z,22.64
2022-09-03T14:30:01.730Z,22.62
2022-09-03T14:35:18.523Z,22.59
2022-09-03T14:40:26.585Z,22.60
2022-09-03T14:45:52.950Z,22.67
2022-09-03T14:51:13.681Z,22.69
2022-09-03T14:56:25.924Z,22.76
2022-09-03T15:01:31.439Z,22.78
2022-09-03T15:06:51.155Z,22.78
2022-09-03T15:11:56.461Z,22.78
2022-09-03T15:17:01.646Z,22.78
2022-09-03T15:22:15.054Z,22.83
2022-09-03T15:27:37.382Z,22.93
2022-09-03T15:33:03.481Z,22.94
2022-09-03T15:38:11.137Z,23.01
2022-09-03T15:43:19.413Z,23.09
2022-09-03T15:48:27.941Z,23.00
2022-09-03T15:53:36.096Z,23.05
2022-09-03T15:58:43.320Z,23.02
2022-09-03T16:04:01.321Z,23.06
2022-09-03T16:09:09.428Z,23.05
2022-09-03T16:14:16.191Z,23.08
2022-09-03T16:19:23.023Z,23.05
2022-09-03T16:24:32.478Z,23.09
2022-09-03T16:29:35.201Z,23.10
2022-09-03T16:34:46.520Z,23.11
2022-09-03T16:39:57.107Z,23.12
2022-09-03T16:45:11.829Z,23.13
2022-09-03T16:50:28.072Z,23.15
2022-09-03T16:55:44.722Z,23.18
2022-09-03T17:00:59.137Z,23.21
2022-09-03T17:06:15.217Z,23.20
2022-09-03T17:11:40.627Z,23.23
2022-09-03T17:16:52.345Z,23.24
2022-09-03T17:22:07.278Z,23.25
2022-09-03T17:27:28.364Z,23.26
2022-09-03T17:32:46.127Z,23.26
2022-09-03T17:37:57.013Z,23.30
2022-09-03T17:43:06.581Z,23.31
2022-09-03T17:48:24.262Z,23.24
2022-09-03T17:53:33.581Z,23.17
2022-09-03T17:58:40.669Z,23.21
2022-09-03T18:03:47.598Z,23.19
2022-09-03T18:08:54.464Z,23.21
2022-09-03T18:14:07.857Z,23.26
2022-09-03T18:19:19.124Z,23.15
2022-09-03T18:24:50.837Z,23.12
2022-09-03T18:30:17.530Z,23.21
2022-09-03T18:35:37.631Z,23.11
2022-09-03T18:41:05.035Z,23.13
2022-09-03T18:52:16.626Z,22.98
2022-09-03T18:57:39.475Z,23.08
2022-09-03T19:03:08.990Z,22.98
2022-09-03T19:08:33.278Z,23.01
2022-09-03T19:13:55.097Z,22.97
2022-09-03T19:19:34.929Z,22.80
2022-09-03T19:24:55.062Z,22.77
2022-09-03T19:30:22.743Z,22.80
2022-09-03T19:35:49.405Z,22.76
2022-09-03T19:41:18.057Z,22.71
2022-09-03T19:46:48.260Z,22.57
2022-09-03T19:52:16.287Z,22.61
2022-09-03T19:57:37.425Z,22.55
2022-09-03T20:02:58.167Z,22.57
2022-09-03T20:08:19.732Z,22.55
2022-09-03T20:13:22.512Z,22.49
2022-09-03T20:18:34.788Z,22.44
2022-09-03T20:23:44.522Z,22.45
2022-09-03T20:29:00.701Z,22.41
2022-09-03T20:34:11.568Z,22.37
2022-09-03T20:39:33.437Z,22.33
2022-09-03T20:44:47.508Z,22.33
2022-09-03T20:49:54.268Z,22.31
2022-09-03T20:55:06.275Z,22.23
2022-09-03T21:00:12.564Z,22.24
2022-09-03T21:05:20.395Z,22.20
2022-09-03T21:10:31.828Z,22.15
2022-09-03T21:15:43.459Z,22.08
2022-09-03T21:20:48.631Z,22.09
2022-09-03T21:26:00.314Z,22.07
2022-09-03T21:31:11.485Z,22.04
2022-09-03T21:36:17.652Z,22.19
2022-09-03T21:41:27.334Z,21.98
2022-09-03T21:46:33.692Z,22.00
2022-09-03T21:51:39.826Z,22.05
2022-09-03T21:57:03.148Z,21.85
2022-09-03T22:02:09.727Z,21.87
2022-09-03T22:07:17.363Z,21.83
2022-09-03T22:12:24.810Z,21.82
2022-09-03T22:17:31.698Z,21.78
2022-09-03T22:22:40.738Z,21.73
2022-09-03T22:27:48.739Z,21.83
2022-09-03T22:32:59.658Z,21.71
2022-09-03T22:38:18.422Z,21.62
2022-09-03T22:43:37.079Z,21.68
2022-09-03T22:49:09.258Z,21.65
2022-09-03T22:54:21.921Z,21.49
2022-09-03T22:59:30.261Z,21.59
2022-09-03T23:04:38.229Z,21.46
2022-09-03T23:09:42.011Z,21.44
2022-09-03T23:14:51.203Z,21.33
2022-09-03T23:19:58.660Z,21.33
2022-09-03T23:25:05.498Z,21.34
2022-09-03T23:30:10.334Z,21.45
2022-09-03T23:35:17.716Z,21.33
2022-09-03T23:40:32.946Z,21.26
2022-09-03T23:45:44.125Z,21.23
2022-09-03T23:50:52.753Z,21.25
2022-09-03T23:56:06.131Z,21.24
